Azle, Texas
Current Conditions -  °F | °C
As of 9:52 AM on Friday 21 Nov 2014 (Local Time) from KNFW Reporting Station
Overcast Overcast  
Wind Chill: 67°   Ceiling: 500
Heat Index: 67°   Visibility: 7mi
Dew Point: 58°   Wind: 9mph
Humidity: 73%   Direction: 120°ESE
Pressure: 30.16"   Gusts: NA
Location:  32.88°N, 97.54°W
Report Text: KNFW 211552Z 12008KT 7SM OVC005 19/14 A3016 RMK AO2 SLP194 T01940144 CHINO N $
Loading
Personal Weather Stations






























Interactive Weather Map New forecast layout! Learn more

10-Day Weather Forecast

Advertisements
Track Severe Weather on mobile